Time;durP1;ratioP1;P1;durP2;ratioP2;P2;SDS_P1;SDS_P2;PMS_P1;PMS_P2;Temp;Humidity;BMP_temperature;BMP_pressure;BME280_temperature;BME280_humidity;BME280_pressure;Samples;Min_cycle;Max_cycle;Signal;HPM_P1;HPM_P2
2023/08/09 00:00:42;;;;;;;4.88;2.53;;;14.60;99.90;;;;;;5067106;28;20027;-74
2023/08/09 00:03:08;;;;;;;2.35;1.75;;;14.50;99.90;;;;;;5066085;28;20099;-73
2023/08/09 00:05:34;;;;;;;4.03;2.17;;;14.50;99.90;;;;;;5068510;28;20528;-73
2023/08/09 00:08:00;;;;;;;3.05;2.13;;;14.50;99.90;;;;;;5059388;28;20116;-73
2023/08/09 00:10:25;;;;;;;2.80;1.50;;;14.50;99.90;;;;;;5063962;28;20051;-73
2023/08/09 00:12:51;;;;;;;2.88;1.73;;;14.40;99.90;;;;;;5067903;28;20052;-73
2023/08/09 00:15:18;;;;;;;3.63;2.35;;;14.40;99.90;;;;;;5067589;28;20036;-73
2023/08/09 00:17:44;;;;;;;3.65;1.75;;;14.30;99.90;;;;;;5056142;28;20117;-73
2023/08/09 00:20:11;;;;;;;3.75;1.52;;;14.30;99.90;;;;;;5065885;28;20112;-73
2023/08/09 00:22:37;;;;;;;2.88;1.48;;;14.30;99.90;;;;;;5059727;28;20056;-73
2023/08/09 00:25:03;;;;;;;2.63;1.48;;;14.30;99.90;;;;;;5063817;28;20450;-73
2023/08/09 00:27:29;;;;;;;3.80;1.65;;;14.30;99.90;;;;;;5067692;28;20028;-73
2023/08/09 00:29:55;;;;;;;3.75;2.08;;;14.30;99.90;;;;;;5068425;28;20070;-73
2023/08/09 00:32:21;;;;;;;2.58;1.98;;;14.30;99.90;;;;;;5063987;28;20016;-73
2023/08/09 00:34:47;;;;;;;4.43;2.00;;;14.30;99.90;;;;;;5067326;28;20051;-73
2023/08/09 00:37:13;;;;;;;3.28;2.00;;;14.30;99.90;;;;;;5047354;28;20046;-73
2023/08/09 00:39:38;;;;;;;2.25;1.52;;;14.40;99.90;;;;;;5069299;28;20480;-73
2023/08/09 00:42:04;;;;;;;3.75;2.00;;;14.30;99.90;;;;;;5068173;28;20112;-73
2023/08/09 00:44:30;;;;;;;2.85;2.05;;;14.30;99.90;;;;;;5063487;28;20039;-73
2023/08/09 00:46:55;;;;;;;5.25;2.55;;;14.30;99.90;;;;;;5065237;28;20048;-74
2023/08/09 00:49:21;;;;;;;3.60;1.88;;;14.20;99.90;;;;;;5060141;28;20068;-73
2023/08/09 00:51:48;;;;;;;4.18;2.25;;;14.20;99.90;;;;;;5069850;28;20062;-74
2023/08/09 00:54:14;;;;;;;4.25;2.60;;;14.10;99.90;;;;;;5065415;28;20021;-73
2023/08/09 00:56:40;;;;;;;5.05;2.40;;;14.00;99.90;;;;;;5068194;28;20090;-73
2023/08/09 00:59:06;;;;;;;3.85;2.67;;;13.90;99.90;;;;;;5067683;28;20059;-74
2023/08/09 01:01:31;;;;;;;4.57;2.50;;;13.90;99.90;;;;;;5069493;28;20453;-73
2023/08/09 01:03:57;;;;;;;4.88;3.00;;;13.80;99.90;;;;;;5065680;28;20061;-73
2023/08/09 01:06:44;;;;;;;3.95;3.10;;;13.70;99.90;;;;;;5069204;28;20025;-73
2023/08/09 01:10:00;;;;;;;7.72;3.45;;;13.70;99.90;;;;;;5060922;28;20094;-73
2023/08/09 01:12:34;;;;;;;4.60;3.60;;;13.70;99.90;;;;;;5061988;28;20098;-73
2023/08/09 01:15:02;;;;;;;4.82;3.40;;;13.60;99.90;;;;;;5067686;28;20032;-73
2023/08/09 01:17:29;;;;;;;6.18;3.72;;;13.50;99.90;;;;;;5066926;28;20028;-73
2023/08/09 01:19:56;;;;;;;9.60;3.97;;;13.50;99.90;;;;;;5065428;28;20099;-73
2023/08/09 01:22:30;;;;;;;6.38;3.15;;;13.40;99.90;;;;;;5068412;28;20078;-73
2023/08/09 01:25:06;;;;;;;4.28;3.85;;;13.40;99.90;;;;;;5052957;28;20032;-73
2023/08/09 01:27:32;;;;;;;9.02;3.92;;;13.30;99.90;;;;;;5070019;28;20054;-73
2023/08/09 01:29:58;;;;;;;4.65;4.10;;;13.30;99.90;;;;;;5068296;28;20029;-73
2023/08/09 01:32:25;;;;;;;5.57;4.15;;;13.30;99.90;;;;;;5065108;28;20735;-72
2023/08/09 01:34:51;;;;;;;37.47;4.70;;;13.20;99.90;;;;;;5056051;28;20048;-73
2023/08/09 01:37:27;;;;;;;151.75;9.48;;;13.20;99.90;;;;;;5045505;28;20079;-73
2023/08/09 01:39:57;;;;;;;5.70;3.60;;;13.20;99.90;;;;;;5046990;28;20198;-73
2023/08/09 01:42:22;;;;;;;9.70;3.63;;;13.10;99.90;;;;;;5065910;28;20025;-73
2023/08/09 01:44:49;;;;;;;5.10;4.00;;;13.10;99.90;;;;;;5066892;28;20075;-73
2023/08/09 01:47:16;;;;;;;4.13;3.50;;;13.10;99.90;;;;;;5068577;28;20134;-73
2023/08/09 01:49:51;;;;;;;6.35;5.38;;;13.20;99.90;;;;;;5063406;28;20028;-73
2023/08/09 01:52:17;;;;;;;6.10;4.82;;;13.20;99.90;;;;;;5068279;28;20020;-73
2023/08/09 01:54:43;;;;;;;9.40;5.55;;;13.30;99.90;;;;;;5062704;28;20031;-73
2023/08/09 01:57:10;;;;;;;8.35;5.97;;;13.30;99.90;;;;;;5066968;28;20017;-73
2023/08/09 01:59:35;;;;;;;7.07;5.40;;;13.40;99.90;;;;;;5064924;28;20021;-73
2023/08/09 02:02:01;;;;;;;5.25;4.45;;;13.40;99.90;;;;;;5067675;28;20098;-73
2023/08/09 02:04:27;;;;;;;7.35;5.10;;;13.40;99.90;;;;;;5061760;28;20468;-73
2023/08/09 02:06:52;;;;;;;5.28;4.22;;;13.40;99.90;;;;;;5068934;28;20024;-73
2023/08/09 02:09:18;;;;;;;8.48;4.78;;;13.40;99.90;;;;;;5067089;28;20033;-73
2023/08/09 02:11:44;;;;;;;10.43;4.95;;;13.40;99.90;;;;;;5054750;28;20074;-73
2023/08/09 02:14:09;;;;;;;5.68;4.07;;;13.40;99.90;;;;;;5070004;28;20036;-73
2023/08/09 02:16:35;;;;;;;9.13;6.43;;;13.40;99.90;;;;;;5067203;28;20024;-73
2023/08/09 02:19:01;;;;;;;7.47;6.10;;;13.40;99.90;;;;;;5069121;28;20032;-73
2023/08/09 02:21:27;;;;;;;7.20;5.78;;;13.40;99.90;;;;;;5068873;28;20040;-73
2023/08/09 02:23:52;;;;;;;10.88;6.68;;;13.40;99.90;;;;;;5053981;28;20385;-73
2023/08/09 02:26:18;;;;;;;9.93;7.22;;;13.50;99.90;;;;;;5068596;28;20041;-73
2023/08/09 02:28:45;;;;;;;9.93;7.28;;;13.40;99.90;;;;;;5067948;28;20091;-73
2023/08/09 02:31:10;;;;;;;9.90;7.38;;;13.50;99.90;;;;;;5072622;28;20033;-73
2023/08/09 02:33:37;;;;;;;12.13;8.48;;;13.50;99.90;;;;;;5046841;28;20055;-73
2023/08/09 02:36:03;;;;;;;9.90;7.88;;;13.50;99.90;;;;;;5064851;28;20024;-73
2023/08/09 02:38:30;;;;;;;10.07;8.07;;;13.60;99.90;;;;;;5072296;28;20086;-73
2023/08/09 02:40:55;;;;;;;11.18;8.93;;;13.60;99.90;;;;;;5072001;28;20107;-73
2023/08/09 02:43:25;;;;;;;12.63;9.35;;;13.60;99.90;;;;;;5069743;28;20452;-73
2023/08/09 02:45:52;;;;;;;10.68;8.60;;;13.60;99.90;;;;;;5063307;28;20036;-73
2023/08/09 02:48:18;;;;;;;12.48;9.60;;;13.70;99.90;;;;;;5066915;28;20040;-73
2023/08/09 02:50:44;;;;;;;12.40;9.38;;;13.70;99.90;;;;;;5069152;28;20039;-73
2023/08/09 02:53:10;;;;;;;13.73;9.65;;;13.70;99.90;;;;;;5064023;28;20036;-73
2023/08/09 02:55:36;;;;;;;19.45;12.55;;;13.80;99.90;;;;;;5069115;28;20104;-73
2023/08/09 02:58:04;;;;;;;20.55;13.10;;;13.80;99.90;;;;;;5068295;28;20037;-73
2023/08/09 03:00:30;;;;;;;20.02;13.35;;;13.80;99.90;;;;;;5070644;28;20043;-73
2023/08/09 03:02:56;;;;;;;25.67;14.50;;;13.80;99.90;;;;;;5070219;28;20029;-73
2023/08/09 03:05:22;;;;;;;23.90;14.98;;;13.90;99.90;;;;;;5058499;28;20029;-73
2023/08/09 03:07:47;;;;;;;27.67;16.17;;;13.90;99.90;;;;;;5065710;28;20500;-73
2023/08/09 03:10:13;;;;;;;25.60;15.93;;;13.90;99.90;;;;;;5066982;28;20032;-73
2023/08/09 03:12:38;;;;;;;28.33;17.02;;;14.00;99.90;;;;;;5069135;28;20062;-73
2023/08/09 03:15:05;;;;;;;26.00;15.05;;;14.00;99.90;;;;;;5067293;28;20032;-73
2023/08/09 03:17:31;;;;;;;25.48;16.02;;;14.00;99.90;;;;;;5069475;28;20029;-73
2023/08/09 03:19:57;;;;;;;26.35;16.80;;;14.00;99.90;;;;;;5055896;28;20086;-73
2023/08/09 03:22:23;;;;;;;33.67;17.52;;;14.00;99.90;;;;;;5064190;28;20017;-73
2023/08/09 03:24:49;;;;;;;30.90;17.20;;;14.10;99.90;;;;;;5066134;28;20499;-73
2023/08/09 03:27:15;;;;;;;29.85;16.88;;;14.00;99.90;;;;;;5068873;28;20020;-73
2023/08/09 03:29:41;;;;;;;27.23;15.95;;;14.10;99.90;;;;;;5068485;28;20434;-72
2023/08/09 03:32:07;;;;;;;30.98;17.20;;;14.10;99.90;;;;;;5065471;28;20032;-73
2023/08/09 03:34:32;;;;;;;27.60;16.15;;;14.10;99.90;;;;;;5067573;28;20129;-73
2023/08/09 03:36:58;;;;;;;26.27;15.43;;;14.10;99.90;;;;;;5069732;28;20051;-73
2023/08/09 03:39:23;;;;;;;22.33;14.65;;;14.10;99.90;;;;;;5067327;28;20163;-73
2023/08/09 03:41:49;;;;;;;25.08;14.50;;;14.10;99.90;;;;;;5069009;28;20114;-73
2023/08/09 03:44:15;;;;;;;22.70;13.73;;;14.20;99.90;;;;;;5065445;28;20028;-73
2023/08/09 03:46:41;;;;;;;22.15;13.25;;;14.10;99.90;;;;;;5068425;28;20032;-73
2023/08/09 03:49:07;;;;;;;18.20;12.55;;;14.10;99.90;;;;;;5065465;28;20269;-73
2023/08/09 03:51:32;;;;;;;19.15;13.57;;;14.00;99.90;;;;;;5050016;28;20074;-73
2023/08/09 03:53:59;;;;;;;20.77;12.45;;;14.00;99.90;;;;;;5062140;28;20028;-73
2023/08/09 03:56:24;;;;;;;24.92;12.20;;;14.00;99.90;;;;;;5058698;28;20021;-73
2023/08/09 03:58:50;;;;;;;64.95;12.18;;;13.90;99.90;;;;;;5060119;28;20027;-74
2023/08/09 04:01:16;;;;;;;67.65;10.27;;;13.80;99.90;;;;;;5062624;28;20055;-73
2023/08/09 04:03:41;;;;;;;79.95;8.55;;;13.80;99.90;;;;;;5052185;28;20488;-73
2023/08/09 04:06:07;;;;;;;61.67;7.65;;;13.80;99.90;;;;;;5066893;28;20039;-73
2023/08/09 04:08:32;;;;;;;62.67;6.15;;;13.70;99.90;;;;;;5064789;28;20045;-73
2023/08/09 04:10:59;;;;;;;69.20;6.95;;;13.70;99.90;;;;;;5062117;28;20124;-73
2023/08/09 04:13:25;;;;;;;73.97;6.90;;;13.60;99.90;;;;;;5067578;28;20031;-73
2023/08/09 04:15:51;;;;;;;73.65;6.05;;;13.50;99.90;;;;;;5063735;28;20016;-73
2023/08/09 04:18:19;;;;;;;84.82;6.30;;;13.50;99.90;;;;;;5044106;28;20495;-73
2023/08/09 04:20:45;;;;;;;35.35;5.53;;;13.50;99.90;;;;;;5068769;28;20051;-73
2023/08/09 04:23:12;;;;;;;90.07;7.82;;;13.40;99.90;;;;;;5067887;28;20029;-73
2023/08/09 04:25:38;;;;;;;57.30;6.70;;;13.30;99.90;;;;;;5065931;28;20480;-73
2023/08/09 04:28:03;;;;;;;53.15;7.18;;;13.30;99.90;;;;;;5067828;28;20046;-73
2023/08/09 04:30:29;;;;;;;41.58;7.20;;;13.20;99.90;;;;;;5065752;28;20020;-73
2023/08/09 04:32:55;;;;;;;46.50;7.68;;;13.20;99.90;;;;;;5058360;28;20072;-73
2023/08/09 04:35:21;;;;;;;93.97;9.05;;;13.20;99.90;;;;;;5059891;28;20059;-73
2023/08/09 04:37:46;;;;;;;56.25;7.78;;;13.20;99.90;;;;;;5068007;28;20044;-73
2023/08/09 04:40:12;;;;;;;54.45;8.93;;;13.10;99.90;;;;;;5043535;28;20024;-73
2023/08/09 04:42:39;;;;;;;45.10;8.63;;;13.10;99.90;;;;;;5065677;28;20111;-73
2023/08/09 04:45:15;;;;;;;61.85;9.55;;;13.10;99.90;;;;;;5050539;28;20020;-73
2023/08/09 04:47:41;;;;;;;48.85;9.07;;;13.10;99.90;;;;;;5070646;28;20029;-73
2023/08/09 04:50:07;;;;;;;63.63;10.35;;;13.10;99.90;;;;;;5069876;28;20518;-73
2023/08/09 04:52:34;;;;;;;73.72;10.63;;;13.20;99.90;;;;;;5068568;28;20027;-73
2023/08/09 04:55:00;;;;;;;42.63;10.13;;;13.20;99.90;;;;;;5068287;28;20040;-73
2023/08/09 04:57:26;;;;;;;68.07;10.32;;;13.20;99.90;;;;;;5061976;28;20029;-73
2023/08/09 04:59:52;;;;;;;41.63;10.27;;;13.30;99.90;;;;;;5069394;28;20037;-73
2023/08/09 05:02:17;;;;;;;81.55;12.13;;;13.30;99.90;;;;;;5065573;28;20071;-73
2023/08/09 05:04:43;;;;;;;49.58;11.32;;;13.30;99.90;;;;;;5060614;28;20424;-73
2023/08/09 05:07:08;;;;;;;26.50;9.80;;;13.30;99.90;;;;;;5065416;28;20118;-74
2023/08/09 05:09:34;;;;;;;42.47;11.02;;;13.40;99.90;;;;;;5060374;28;20047;-73
2023/08/09 05:12:00;;;;;;;37.72;9.88;;;13.50;99.90;;;;;;5069589;28;20024;-73
2023/08/09 05:14:26;;;;;;;34.25;10.23;;;13.50;99.90;;;;;;5063847;28;20033;-73
2023/08/09 05:16:52;;;;;;;52.08;10.20;;;13.50;99.90;;;;;;5060145;28;20487;-73
2023/08/09 05:19:18;;;;;;;18.00;9.95;;;13.60;99.90;;;;;;5068164;28;20021;-73
2023/08/09 05:21:44;;;;;;;14.20;8.63;;;13.70;99.90;;;;;;5058121;28;20029;-73
2023/08/09 05:24:09;;;;;;;23.02;8.82;;;13.70;99.90;;;;;;5056396;28;20031;-72
2023/08/09 05:26:35;;;;;;;12.93;9.40;;;13.80;99.90;;;;;;5051420;28;20391;-73
2023/08/09 05:29:01;;;;;;;22.92;10.30;;;13.80;99.90;;;;;;5067584;28;20049;-73
2023/08/09 05:31:26;;;;;;;22.90;11.35;;;13.80;99.90;;;;;;5059778;28;20055;-73
2023/08/09 05:33:53;;;;;;;33.63;11.45;;;13.90;99.90;;;;;;5061034;28;20052;-73
2023/08/09 05:36:19;;;;;;;18.58;12.45;;;14.00;99.90;;;;;;5070350;28;20383;-73
2023/08/09 05:38:44;;;;;;;23.13;13.02;;;14.10;99.90;;;;;;5066876;28;20020;-73
2023/08/09 05:41:10;;;;;;;25.65;13.32;;;14.20;99.90;;;;;;5068100;28;20074;-73
2023/08/09 05:43:35;;;;;;;21.70;12.65;;;14.30;99.90;;;;;;5062764;28;20401;-73
2023/08/09 05:46:02;;;;;;;27.17;13.82;;;14.40;99.90;;;;;;5065380;28;20055;-73
2023/08/09 05:48:27;;;;;;;31.88;14.65;;;14.50;99.90;;;;;;5069012;28;20036;-73
2023/08/09 05:50:53;;;;;;;30.42;14.23;;;14.60;99.90;;;;;;5063133;28;20032;-73
2023/08/09 05:53:19;;;;;;;30.95;16.90;;;14.60;99.90;;;;;;5067458;28;20025;-73
2023/08/09 05:55:44;;;;;;;25.73;15.52;;;14.70;99.90;;;;;;5065579;28;20063;-73
2023/08/09 05:58:10;;;;;;;33.30;15.85;;;14.80;99.90;;;;;;5065350;28;20024;-73
2023/08/09 06:00:37;;;;;;;27.08;15.93;;;14.80;99.90;;;;;;5069475;28;20069;-73
2023/08/09 06:03:03;;;;;;;41.67;16.80;;;14.90;99.90;;;;;;5067979;28;20089;-72
2023/08/09 06:05:28;;;;;;;33.35;16.67;;;14.90;99.90;;;;;;5069681;28;20020;-73
2023/08/09 06:07:55;;;;;;;26.63;14.80;;;14.90;99.90;;;;;;5067142;28;20051;-73
2023/08/09 06:10:22;;;;;;;29.95;17.58;;;15.00;99.90;;;;;;5057250;28;20029;-73
2023/08/09 06:12:49;;;;;;;28.85;17.30;;;15.10;99.90;;;;;;5070913;28;20044;-73
2023/08/09 06:15:16;;;;;;;29.70;17.33;;;15.20;99.90;;;;;;5070409;28;20023;-73
2023/08/09 06:17:41;;;;;;;30.08;17.17;;;15.30;99.90;;;;;;5044774;28;20376;-73
2023/08/09 06:20:08;;;;;;;28.70;17.25;;;15.40;99.90;;;;;;5073057;28;20057;-73
2023/08/09 06:22:33;;;;;;;23.42;15.57;;;15.40;99.90;;;;;;5069474;28;20038;-73
2023/08/09 06:24:59;;;;;;;29.75;16.10;;;15.40;99.90;;;;;;5072693;28;20091;-73
2023/08/09 06:27:25;;;;;;;26.35;17.25;;;15.40;99.90;;;;;;5069123;28;20086;-73
2023/08/09 06:29:50;;;;;;;25.13;16.70;;;15.40;99.90;;;;;;5072555;28;20024;-73
2023/08/09 06:32:16;;;;;;;23.98;15.60;;;15.40;99.90;;;;;;5063611;28;20040;-73
2023/08/09 06:34:42;;;;;;;27.08;17.45;;;15.40;99.90;;;;;;5066324;28;20439;-73
2023/08/09 06:37:08;;;;;;;28.40;17.58;;;15.40;99.90;;;;;;5069989;28;20104;-72
2023/08/09 06:39:36;;;;;;;25.60;17.75;;;15.50;99.90;;;;;;5072981;28;20056;-73
2023/08/09 06:42:02;;;;;;;23.02;15.82;;;15.60;99.90;;;;;;5072491;28;20384;-73
2023/08/09 06:44:27;;;;;;;25.13;16.15;;;15.70;99.90;;;;;;5066598;28;20025;-73
2023/08/09 06:46:56;;;;;;;21.80;14.80;;;15.80;99.90;;;;;;5072040;28;20102;-73
2023/08/09 06:49:23;;;;;;;23.65;16.05;;;15.90;99.90;;;;;;5067322;28;20088;-73
2023/08/09 06:51:48;;;;;;;23.40;15.43;;;16.00;99.90;;;;;;5064944;28;20025;-73
2023/08/09 06:54:14;;;;;;;25.88;16.38;;;16.00;99.90;;;;;;5066811;28;20035;-72
2023/08/09 06:56:40;;;;;;;26.33;17.70;;;16.00;99.90;;;;;;5068574;28;20020;-72
2023/08/09 06:59:05;;;;;;;23.88;16.85;;;16.10;99.90;;;;;;5062742;28;20512;-73
2023/08/09 07:01:31;;;;;;;25.77;16.75;;;16.20;99.90;;;;;;5058488;28;20031;-73
2023/08/09 07:03:57;;;;;;;24.67;17.10;;;16.20;99.90;;;;;;5066235;28;20480;-73
2023/08/09 07:06:23;;;;;;;23.48;16.08;;;16.30;99.90;;;;;;5061737;28;20028;-72
2023/08/09 07:08:53;;;;;;;25.08;16.98;;;16.30;99.90;;;;;;5056528;28;20060;-72
2023/08/09 07:11:19;;;;;;;21.50;15.73;;;16.40;99.90;;;;;;5069069;28;20074;-72
2023/08/09 07:13:45;;;;;;;23.60;16.48;;;16.50;99.90;;;;;;5071324;28;20077;-72
2023/08/09 07:16:11;;;;;;;19.73;14.40;;;16.50;99.90;;;;;;5070061;28;20024;-72
2023/08/09 07:18:37;;;;;;;23.45;16.27;;;16.60;99.90;;;;;;5065912;28;20484;-72
2023/08/09 07:21:03;;;;;;;22.23;16.17;;;16.70;99.90;;;;;;5063536;28;20107;-72
2023/08/09 07:23:28;;;;;;;21.40;15.00;;;16.70;99.90;;;;;;5069847;28;20020;-73
2023/08/09 07:25:54;;;;;;;18.42;14.82;;;16.80;99.90;;;;;;5071492;28;20025;-72
2023/08/09 07:28:19;;;;;;;22.23;16.98;;;16.90;99.90;;;;;;5068362;28;20025;-72
2023/08/09 07:30:45;;;;;;;20.42;16.70;;;16.90;99.90;;;;;;5068905;28;20032;-72
2023/08/09 07:33:10;;;;;;;21.02;15.57;;;17.00;99.90;;;;;;5044353;28;20444;-72
2023/08/09 07:35:36;;;;;;;19.88;16.05;;;17.00;99.90;;;;;;5050365;28;20357;-72
2023/08/09 07:38:02;;;;;;;23.40;16.35;;;17.10;99.90;;;;;;5040734;28;20123;-72
2023/08/09 07:40:28;;;;;;;19.80;15.68;;;17.20;99.90;;;;;;5048529;28;20472;-72
2023/08/09 07:42:55;;;;;;;17.98;14.68;;;17.40;99.90;;;;;;5049147;28;20392;-72
2023/08/09 07:45:21;;;;;;;21.25;15.68;;;17.50;99.90;;;;;;5049378;28;20512;-72
2023/08/09 07:47:46;;;;;;;19.83;14.77;;;17.50;99.90;;;;;;5037093;28;20029;-73
2023/08/09 07:50:12;;;;;;;18.40;14.27;;;17.60;99.90;;;;;;5050663;28;20071;-72
2023/08/09 07:52:37;;;;;;;17.25;13.00;;;17.70;99.90;;;;;;5041305;28;20025;-71
2023/08/09 07:55:05;;;;;;;13.60;11.48;;;17.90;99.90;;;;;;5043484;28;20115;-72
2023/08/09 07:57:30;;;;;;;17.55;12.68;;;18.00;99.90;;;;;;5050740;28;20025;-72
2023/08/09 07:59:56;;;;;;;13.65;11.73;;;18.10;99.90;;;;;;5050538;28;20493;-72
2023/08/09 08:02:22;;;;;;;14.32;12.38;;;18.10;99.90;;;;;;5044559;28;20036;-73
2023/08/09 08:04:47;;;;;;;14.82;10.60;;;18.20;99.90;;;;;;5048727;28;20037;-72
2023/08/09 08:07:14;;;;;;;11.45;8.98;;;18.50;99.90;;;;;;5044991;28;20109;-72
2023/08/09 08:09:41;;;;;;;12.07;9.23;;;18.70;99.90;;;;;;5048957;28;20484;-73
2023/08/09 08:12:08;;;;;;;12.38;10.13;;;18.90;99.90;;;;;;5045177;28;20029;-72
2023/08/09 08:14:34;;;;;;;10.60;9.15;;;19.00;99.90;;;;;;5034206;28;20029;-72
2023/08/09 08:17:00;;;;;;;11.32;9.40;;;19.00;99.90;;;;;;5049635;28;20029;-72
2023/08/09 08:19:26;;;;;;;12.88;10.02;;;19.00;99.90;;;;;;5048541;28;20080;-72
2023/08/09 08:21:51;;;;;;;12.20;8.50;;;19.00;99.90;;;;;;5043004;28;20052;-72
2023/08/09 08:24:17;;;;;;;11.60;8.00;;;19.20;99.90;;;;;;5039040;28;20037;-72
2023/08/09 08:26:42;;;;;;;11.35;8.80;;;19.40;99.90;;;;;;5031195;28;20028;-72
2023/08/09 08:29:08;;;;;;;7.93;6.88;;;19.60;99.90;;;;;;5040895;28;20579;-73
2023/08/09 08:31:33;;;;;;;9.48;6.63;;;19.90;99.90;;;;;;5040955;28;20040;-72
2023/08/09 08:33:59;;;;;;;12.18;6.53;;;20.20;99.90;;;;;;5043867;28;20049;-73
2023/08/09 08:36:25;;;;;;;8.80;5.05;;;20.30;99.90;;;;;;5045352;28;20493;-72
2023/08/09 08:38:51;;;;;;;7.88;4.03;;;20.50;99.90;;;;;;5048012;28;20033;-72
2023/08/09 08:41:16;;;;;;;6.07;3.17;;;20.50;99.90;;;;;;5050899;28;20028;-72
2023/08/09 08:43:44;;;;;;;10.75;5.13;;;20.40;99.90;;;;;;5048957;28;20039;-73
2023/08/09 08:46:14;;;;;;;6.32;4.25;;;20.30;99.90;;;;;;5042653;28;20048;-72
2023/08/09 08:48:42;;;;;;;6.40;3.55;;;20.10;99.90;;;;;;5039392;28;20396;-72
2023/08/09 08:51:08;;;;;;;6.65;5.00;;;20.00;99.90;;;;;;5050321;28;20079;-72
2023/08/09 08:53:34;;;;;;;9.10;3.72;;;19.90;99.90;;;;;;5048714;28;20033;-72
2023/08/09 08:56:00;;;;;;;4.75;3.28;;;19.80;99.90;;;;;;5043105;28;20039;-72
2023/08/09 08:58:25;;;;;;;7.05;3.33;;;19.90;99.90;;;;;;5046972;28;20090;-72
2023/08/09 09:00:51;;;;;;;4.82;2.75;;;19.90;99.90;;;;;;5049043;28;20025;-72
2023/08/09 09:03:16;;;;;;;4.50;3.47;;;20.00;99.90;;;;;;5048379;28;20032;-72
2023/08/09 09:05:42;;;;;;;5.43;2.38;;;20.10;99.90;;;;;;5050269;28;20029;-72
2023/08/09 09:08:08;;;;;;;6.90;3.15;;;20.10;99.90;;;;;;5049355;28;20116;-72
2023/08/09 09:10:33;;;;;;;4.88;2.42;;;20.10;99.90;;;;;;5043073;28;20028;-72
2023/08/09 09:12:59;;;;;;;6.68;2.78;;;20.10;99.90;;;;;;5049127;28;20112;-72
2023/08/09 09:15:27;;;;;;;3.38;2.13;;;20.20;99.90;;;;;;5044716;28;20025;-72
2023/08/09 09:17:53;;;;;;;3.65;2.00;;;20.20;99.90;;;;;;5046698;28;20048;-72
2023/08/09 09:20:23;;;;;;;3.95;2.90;;;20.30;99.90;;;;;;5052013;28;20498;-72
2023/08/09 09:22:50;;;;;;;4.93;2.58;;;20.40;99.90;;;;;;5052730;28;20439;-73
2023/08/09 09:25:17;;;;;;;3.13;1.30;;;20.50;99.90;;;;;;5045925;28;20115;-73
2023/08/09 09:27:46;;;;;;;5.40;1.80;;;20.70;99.90;;;;;;5048453;28;20068;-72
2023/08/09 09:30:12;;;;;;;5.18;2.65;;;20.80;99.90;;;;;;5049973;28;20031;-72
2023/08/09 09:32:52;;;;;;;4.25;1.67;;;21.00;99.90;;;;;;5049796;28;20111;-72
2023/08/09 09:35:18;;;;;;;3.78;1.60;;;21.20;99.90;;;;;;5038925;28;20039;-72
2023/08/09 09:37:54;;;;;;;3.75;1.45;;;21.30;99.90;;;;;;5052952;28;20106;-72
2023/08/09 09:40:31;;;;;;;3.05;1.30;;;21.50;99.90;;;;;;5034443;28;20389;-72
2023/08/09 09:42:58;;;;;;;4.68;1.60;;;21.60;99.90;;;;;;5053125;28;20150;-72
2023/08/09 09:45:28;;;;;;;8.10;2.58;;;21.70;99.90;;;;;;5050041;28;20025;-72
2023/08/09 09:47:55;;;;;;;5.78;2.30;;;21.70;99.90;;;;;;5049480;28;20036;-72
2023/08/09 09:50:22;;;;;;;7.10;2.08;;;21.60;99.90;;;;;;5054394;28;20033;-72
2023/08/09 09:52:49;;;;;;;4.32;2.03;;;21.40;99.90;;;;;;5053381;28;20381;-72
2023/08/09 09:55:16;;;;;;;3.47;1.92;;;21.30;99.90;;;;;;5038566;28;20029;-73
2023/08/09 09:57:42;;;;;;;3.75;1.83;;;21.30;99.90;;;;;;5050739;28;20051;-73
2023/08/09 10:00:16;;;;;;;4.53;3.22;;;21.30;99.90;;;;;;5053012;28;20028;-72
2023/08/09 10:02:51;;;;;;;5.20;3.35;;;21.40;99.90;;;;;;5052104;28;20067;-72
2023/08/09 10:05:20;;;;;;;4.45;2.63;;;21.60;99.90;;;;;;5050526;28;20447;-73
2023/08/09 10:07:47;;;;;;;4.05;2.67;;;21.70;99.90;;;;;;5050244;28;20029;-73
2023/08/09 10:10:14;;;;;;;3.50;2.15;;;21.70;99.90;;;;;;5034055;28;20086;-72
2023/08/09 10:12:47;;;;;;;4.10;2.15;;;21.70;99.90;;;;;;5049227;28;20361;-72
2023/08/09 10:15:14;;;;;;;5.57;2.50;;;21.80;99.90;;;;;;5052616;28;20021;-73
2023/08/09 10:17:43;;;;;;;5.35;2.28;;;21.70;99.90;;;;;;5036455;28;20021;-75
2023/08/09 10:20:11;;;;;;;5.00;1.98;;;21.60;99.90;;;;;;5034631;28;20056;-72
2023/08/09 10:22:38;;;;;;;4.30;2.50;;;21.50;99.90;;;;;;5052950;28;20100;-73
2023/08/09 10:25:04;;;;;;;3.78;2.10;;;21.50;99.90;;;;;;5047505;28;20694;-73
2023/08/09 10:27:51;;;;;;;5.75;2.60;;;21.70;99.90;;;;;;5046486;28;20029;-72
2023/08/09 10:30:19;;;;;;;3.55;2.38;;;21.90;99.90;;;;;;5045447;28;20121;-72
2023/08/09 10:32:51;;;;;;;5.35;2.78;;;22.10;99.90;;;;;;5047844;28;20040;-72
2023/08/09 10:35:19;;;;;;;4.97;2.60;;;22.20;99.90;;;;;;5045566;28;20424;-72
2023/08/09 10:37:44;;;;;;;4.63;2.50;;;22.20;99.90;;;;;;5048873;28;20504;-73
2023/08/09 10:40:18;;;;;;;3.03;2.10;;;22.30;99.90;;;;;;5047229;28;20032;-73
2023/08/09 10:42:46;;;;;;;4.47;2.92;;;22.20;99.90;;;;;;5046114;28;20022;-73
2023/08/09 10:45:13;;;;;;;4.25;2.88;;;22.20;99.90;;;;;;5048685;28;20029;-72
2023/08/09 10:47:40;;;;;;;4.03;2.85;;;22.10;99.90;;;;;;5051973;28;20064;-72
2023/08/09 10:50:07;;;;;;;6.10;3.65;;;22.00;99.90;;;;;;5034005;28;20079;-72
2023/08/09 10:52:41;;;;;;;6.72;2.53;;;22.00;99.90;;;;;;5048469;28;20104;-73
2023/08/09 10:55:28;;;;;;;5.10;2.60;;;22.10;99.90;;;;;;5044351;28;20037;-72
2023/08/09 10:57:56;;;;;;;3.88;3.25;;;22.20;99.90;;;;;;5047053;28;20077;-72
2023/08/09 11:00:23;;;;;;;6.55;5.13;;;22.20;99.90;;;;;;5051755;28;20036;-72
2023/08/09 11:02:51;;;;;;;8.13;4.43;;;22.20;99.90;;;;;;5051534;28;20100;-72
2023/08/09 11:05:18;;;;;;;6.15;3.30;;;22.20;99.90;;;;;;5051103;28;20029;-72
2023/08/09 11:07:51;;;;;;;4.20;2.30;;;22.40;99.90;;;;;;5052388;28;20662;-72
2023/08/09 11:10:37;;;;;;;4.80;2.70;;;22.40;99.90;;;;;;5047068;28;20029;-72
2023/08/09 11:13:13;;;;;;;5.13;2.10;;;22.30;99.90;;;;;;5047555;28;20037;-72
2023/08/09 11:15:47;;;;;;;4.05;2.17;;;22.20;99.90;;;;;;5048267;28;20021;-72
2023/08/09 11:18:14;;;;;;;4.15;1.77;;;22.00;99.90;;;;;;5044354;28;20377;-72
2023/08/09 11:20:39;;;;;;;4.13;1.80;;;21.90;99.90;;;;;;5044603;28;20024;-72
2023/08/09 11:23:05;;;;;;;3.67;2.03;;;22.00;99.90;;;;;;5051141;28;20017;-72
2023/08/09 11:25:33;;;;;;;4.45;2.03;;;22.00;99.90;;;;;;5044756;28;20031;-72
2023/08/09 11:28:00;;;;;;;3.42;2.20;;;22.00;99.90;;;;;;5035063;28;20037;-72
2023/08/09 11:30:25;;;;;;;3.17;2.00;;;22.20;99.90;;;;;;5049394;28;20079;-72
2023/08/09 11:33:03;;;;;;;4.40;2.17;;;22.50;99.90;;;;;;5040432;28;20049;-72
2023/08/09 11:35:42;;;;;;;4.63;2.90;;;22.50;99.90;;;;;;5051453;28;20401;-72
2023/08/09 11:38:11;;;;;;;6.30;3.65;;;22.40;99.90;;;;;;5051665;28;20039;-72
2023/08/09 11:40:45;;;;;;;6.57;2.83;;;22.20;99.90;;;;;;5047945;28;20067;-72
2023/08/09 11:43:16;;;;;;;5.93;3.25;;;22.00;99.90;;;;;;5048116;28;20036;-71
2023/08/09 11:45:53;;;;;;;4.47;2.77;;;21.80;99.90;;;;;;5050339;28;20440;-73
2023/08/09 11:48:27;;;;;;;4.03;1.77;;;21.60;99.90;;;;;;5051378;28;20048;-72
2023/08/09 11:51:14;;;;;;;3.90;1.50;;;21.50;99.90;;;;;;5049671;28;20049;-72
2023/08/09 11:53:41;;;;;;;3.63;1.83;;;21.60;99.90;;;;;;5040506;28;20112;-72
2023/08/09 11:56:12;;;;;;;2.80;1.23;;;21.60;99.90;;;;;;5042087;28;20466;-72
2023/08/09 11:58:39;;;;;;;2.65;1.15;;;21.70;99.90;;;;;;5047618;28;20033;-73
2023/08/09 12:01:15;;;;;;;1.75;0.95;;;21.80;99.90;;;;;;5050055;28;20040;-72
2023/08/09 12:03:59;;;;;;;2.50;0.75;;;22.00;99.90;;;;;;5057590;28;20976;-72
2023/08/09 12:06:39;;;;;;;3.08;0.47;;;22.00;99.90;;;;;;5067181;28;20549;-72
2023/08/09 12:09:25;;;;;;;2.17;0.52;;;21.90;99.90;;;;;;5066460;28;20396;-72
2023/08/09 12:11:51;;;;;;;3.83;1.00;;;21.90;99.90;;;;;;5062872;28;20021;-72
2023/08/09 12:14:17;;;;;;;2.55;0.60;;;21.90;99.90;;;;;;5065126;28;20020;-72
2023/08/09 12:16:42;;;;;;;1.55;0.80;;;22.00;99.90;;;;;;5059043;28;20126;-72
2023/08/09 12:19:08;;;;;;;2.08;0.50;;;22.00;99.90;;;;;;5066340;28;20050;-72
2023/08/09 12:21:33;;;;;;;2.63;0.70;;;22.20;99.90;;;;;;5062004;28;20047;-73
2023/08/09 12:23:59;;;;;;;1.60;0.60;;;22.30;99.90;;;;;;5062235;28;20079;-72
2023/08/09 12:26:28;;;;;;;3.33;0.50;;;22.40;99.90;;;;;;5061741;28;20024;-72
2023/08/09 12:28:54;;;;;;;2.00;0.60;;;22.70;99.90;;;;;;5064986;28;20379;-72
2023/08/09 12:31:19;;;;;;;3.10;0.50;;;22.80;99.90;;;;;;5063289;28;20111;-72
2023/08/09 12:33:45;;;;;;;1.48;0.57;;;22.90;99.90;;;;;;5058861;28;20365;-72
2023/08/09 12:36:12;;;;;;;3.00;0.50;;;23.00;99.90;;;;;;5058041;28;20056;-72
2023/08/09 12:38:38;;;;;;;2.95;0.50;;;23.10;99.90;;;;;;5061914;28;20028;-72